Time;durP1;ratioP1;P1;durP2;ratioP2;P2;SDS_P1;SDS_P2;PMS_P1;PMS_P2;Temp;Humidity;BMP_temperature;BMP_pressure;BME280_temperature;BME280_humidity;BME280_pressure;Samples;Min_cycle;Max_cycle;Signal;HPM_P1;HPM_P2
2022/07/02 00:00:49;;;;;;;8.70;4.63;;;;;;;9.64;100.00;96228.22;5026561;28;20487;-78
2022/07/02 00:03:16;;;;;;;9.52;4.82;;;;;;;9.60;100.00;96227.16;5030553;28;20040;-77
2022/07/02 00:05:47;;;;;;;8.52;4.70;;;;;;;9.52;100.00;96231.78;5014046;28;20042;-79
2022/07/02 00:08:12;;;;;;;10.30;4.97;;;;;;;9.51;100.00;96230.19;5030622;28;20068;-79
2022/07/02 00:10:38;;;;;;;11.30;4.60;;;;;;;9.63;100.00;96231.91;5012929;28;20045;-78
2022/07/02 00:13:05;;;;;;;10.20;6.20;;;;;;;9.72;100.00;96233.06;5031744;28;20037;-78
2022/07/02 00:15:31;;;;;;;8.68;4.75;;;;;;;9.62;100.00;96225.06;5013000;28;20192;-78
2022/07/02 00:17:56;;;;;;;9.98;4.78;;;;;;;9.53;100.00;96222.84;5031145;28;20123;-79
2022/07/02 00:20:23;;;;;;;8.98;4.45;;;;;;;9.52;100.00;96226.53;5012155;28;20048;-78
2022/07/02 00:22:50;;;;;;;11.55;4.97;;;;;;;9.62;100.00;96231.09;5028636;28;20064;-77
2022/07/02 00:25:15;;;;;;;11.07;5.30;;;;;;;9.58;100.00;96229.22;5031684;28;20544;-79
2022/07/02 00:27:42;;;;;;;19.33;6.18;;;;;;;9.54;100.00;96227.06;5031135;28;20091;-78
2022/07/02 00:30:08;;;;;;;10.30;4.60;;;;;;;9.46;100.00;96232.75;5028539;28;20040;-78
2022/07/02 00:32:35;;;;;;;12.45;5.03;;;;;;;9.47;100.00;96229.09;5038767;28;20049;-78
2022/07/02 00:35:09;;;;;;;8.75;5.00;;;;;;;9.57;100.00;96222.34;5013689;28;20054;-78
2022/07/02 00:37:37;;;;;;;11.88;5.15;;;;;;;9.60;100.00;96227.16;5011477;28;22111;-77
2022/07/02 00:40:05;;;;;;;8.07;4.32;;;;;;;9.51;100.00;96224.94;5018641;28;20045;-77
2022/07/02 00:42:31;;;;;;;9.13;4.50;;;;;;;9.43;100.00;96233.25;5010780;28;20064;-78
2022/07/02 00:44:57;;;;;;;8.15;4.50;;;;;;;9.39;100.00;96224.25;5013176;28;20126;-78
2022/07/02 00:47:25;;;;;;;8.88;4.88;;;;;;;9.26;100.00;96228.03;5012627;28;20101;-78
2022/07/02 00:49:50;;;;;;;7.97;4.60;;;;;;;9.26;100.00;96227.25;5026459;28;20120;-78
2022/07/02 00:52:16;;;;;;;7.32;4.22;;;;;;;9.13;100.00;96223.91;5030458;28;20128;-78
2022/07/02 00:54:42;;;;;;;7.85;4.07;;;;;;;9.31;100.00;96232.56;5030698;28;20129;-79
2022/07/02 00:57:07;;;;;;;10.35;4.15;;;;;;;9.29;100.00;96226.75;5012161;28;20041;-78
2022/07/02 00:59:33;;;;;;;8.75;4.13;;;;;;;9.14;100.00;96220.25;5029659;28;20041;-77
2022/07/02 01:01:59;;;;;;;7.47;4.45;;;;;;;9.26;100.00;96227.25;5011060;28;20044;-78
2022/07/02 01:04:29;;;;;;;9.35;4.03;;;;;;;9.28;100.00;96225.16;5027006;28;20701;-78
2022/07/02 01:07:02;;;;;;;7.68;3.88;;;;;;;9.19;100.00;96219.53;5025423;28;20034;-77
2022/07/02 01:12:16;;;;;;;8.80;4.65;;;;;;;9.04;100.00;96225.38;5029516;28;20041;-81
2022/07/02 01:14:42;;;;;;;8.52;4.97;;;;;;;9.11;100.00;96210.25;5012360;28;20045;-81
2022/07/02 01:17:08;;;;;;;8.82;4.45;;;;;;;9.19;100.00;96216.91;5029436;28;20041;-81
2022/07/02 01:19:33;;;;;;;8.82;4.68;;;;;;;9.09;100.00;96217.56;5011514;28;20052;-81
2022/07/02 01:22:18;;;;;;;8.90;4.50;;;;;;;9.01;100.00;96215.38;5037619;28;20506;-81
2022/07/02 01:24:47;;;;;;;11.60;4.97;;;;;;;9.03;100.00;96213.28;5011765;28;20124;-81
2022/07/02 01:27:13;;;;;;;10.77;4.97;;;;;;;9.04;100.00;96217.50;5021464;28;20048;-80
2022/07/02 01:29:39;;;;;;;11.20;4.57;;;;;;;8.96;100.00;96208.19;5028865;28;20050;-81
2022/07/02 01:32:05;;;;;;;12.65;4.75;;;;;;;8.89;100.00;96201.53;5011884;28;20038;-78
2022/07/02 01:34:37;;;;;;;8.15;4.60;;;;;;;8.76;100.00;96200.03;5011979;28;20107;-77
2022/07/02 01:37:04;;;;;;;10.73;4.63;;;;;;;8.84;100.00;96195.19;5023980;28;20045;-78
2022/07/02 01:39:30;;;;;;;7.97;4.28;;;;;;;8.88;100.00;96194.69;5027476;28;20041;-79
2022/07/02 01:41:55;;;;;;;12.95;4.78;;;;;;;8.78;100.00;96204.03;5010736;28;20047;-78
2022/07/02 01:44:20;;;;;;;10.88;4.78;;;;;;;8.82;100.00;96197.25;5011562;28;20054;-78
2022/07/02 01:46:46;;;;;;;7.75;4.20;;;;;;;8.83;100.00;96201.47;5027764;28;20044;-79
2022/07/02 01:49:12;;;;;;;9.35;4.30;;;;;;;8.73;100.00;96203.94;5028010;28;20041;-78
2022/07/02 01:51:37;;;;;;;6.53;3.90;;;;;;;8.61;100.00;96198.00;5029642;28;20466;-78
2022/07/02 01:54:03;;;;;;;7.60;4.25;;;;;;;8.59;100.00;96198.22;5029271;28;20049;-78
2022/07/02 01:56:32;;;;;;;8.00;4.43;;;;;;;8.57;100.00;96189.78;5028124;28;20159;-77
2022/07/02 01:58:57;;;;;;;7.63;4.20;;;;;;;8.59;100.00;96182.50;5027862;28;20037;-78
2022/07/02 02:01:23;;;;;;;12.30;4.35;;;;;;;8.52;100.00;96191.53;5027396;28;20044;-78
2022/07/02 02:03:48;;;;;;;9.60;4.80;;;;;;;8.42;100.00;96203.44;5029640;28;20318;-78
2022/07/02 02:06:14;;;;;;;9.73;4.78;;;;;;;8.43;100.00;96199.81;5022972;28;20068;-77
2022/07/02 02:08:39;;;;;;;11.68;5.07;;;;;;;8.44;100.00;96204.03;5021959;28;20069;-78
2022/07/02 02:11:05;;;;;;;9.48;4.97;;;;;;;8.47;100.00;96206.16;5022816;28;20130;-77
2022/07/02 02:13:31;;;;;;;10.70;5.05;;;;;;;8.59;100.00;96202.66;5028841;28;20045;-78
2022/07/02 02:15:56;;;;;;;11.48;4.85;;;;;;;8.54;100.00;96200.78;5011537;28;20064;-79
2022/07/02 02:18:22;;;;;;;10.60;4.80;;;;;;;8.52;100.00;96208.09;5007320;28;20041;-78
2022/07/02 02:20:47;;;;;;;12.68;4.75;;;;;;;8.43;100.00;96210.28;5036361;28;20055;-78
2022/07/02 02:23:13;;;;;;;8.05;4.40;;;;;;;8.28;100.00;96202.16;5028874;28;20049;-78
2022/07/02 02:25:38;;;;;;;9.88;4.55;;;;;;;8.47;100.00;96195.66;5028459;28;20056;-78
2022/07/02 02:28:04;;;;;;;9.38;4.50;;;;;;;8.52;100.00;96204.66;5027051;28;20059;-78
2022/07/02 02:30:29;;;;;;;10.07;4.60;;;;;;;8.38;100.00;96207.56;5028517;28;20114;-78
2022/07/02 02:32:55;;;;;;;9.02;4.40;;;;;;;8.31;100.00;96202.47;5029287;28;20037;-77
2022/07/02 02:35:20;;;;;;;9.75;4.65;;;;;;;8.37;100.00;96216.47;5010829;28;20133;-78
2022/07/02 02:37:46;;;;;;;16.67;4.50;;;;;;;8.38;100.00;96207.56;5028437;28;20064;-78
2022/07/02 02:40:11;;;;;;;8.18;4.00;;;;;;;8.42;100.00;96213.94;5023225;28;20045;-78
2022/07/02 02:42:37;;;;;;;10.45;4.32;;;;;;;8.36;100.00;96220.16;5028758;28;20049;-78
2022/07/02 02:45:03;;;;;;;7.65;3.92;;;;;;;8.33;100.00;96226.66;5010936;28;20051;-77
2022/07/02 02:47:28;;;;;;;8.65;4.18;;;;;;;8.23;100.00;96225.66;5024892;28;20419;-78
2022/07/02 02:49:54;;;;;;;7.72;4.05;;;;;;;8.20;100.00;96220.91;5028724;28;20052;-78
2022/07/02 02:52:19;;;;;;;7.50;4.07;;;;;;;8.15;100.00;96217.16;5010712;28;20033;-77
2022/07/02 02:54:45;;;;;;;7.82;4.18;;;;;;;8.20;100.00;96220.91;5029106;28;20053;-78
2022/07/02 02:57:10;;;;;;;8.45;4.45;;;;;;;8.22;100.00;96218.84;5026997;28;20053;-78
2022/07/02 02:59:36;;;;;;;7.55;4.13;;;;;;;8.09;100.00;96212.88;5011152;28;20045;-78
2022/07/02 03:02:02;;;;;;;8.18;4.18;;;;;;;8.17;100.00;96216.13;5010824;28;20584;-78
2022/07/02 03:04:27;;;;;;;9.68;4.43;;;;;;;8.30;100.00;96218.44;5028719;28;20048;-78
2022/07/02 03:06:52;;;;;;;7.38;3.95;;;;;;;8.21;100.00;96212.78;5021749;28;20070;-79
2022/07/02 03:09:18;;;;;;;8.07;4.05;;;;;;;8.18;100.00;96212.50;5023875;28;20435;-78
2022/07/02 03:11:44;;;;;;;8.73;3.90;;;;;;;8.13;100.00;96216.63;5026862;28;20041;-78
2022/07/02 03:14:10;;;;;;;6.50;3.47;;;;;;;8.09;100.00;96219.94;5031195;28;20120;-78
2022/07/02 03:16:35;;;;;;;6.15;3.55;;;;;;;8.12;100.00;96224.72;5030169;28;20430;-79
2022/07/02 03:19:01;;;;;;;13.15;4.07;;;;;;;8.12;100.00;96230.75;5027754;28;20100;-80
2022/07/02 03:21:26;;;;;;;7.93;4.18;;;;;;;8.05;100.00;96227.47;5014268;28;20041;-79
2022/07/02 03:23:52;;;;;;;8.68;3.88;;;;;;;8.05;100.00;96237.16;5032894;28;20120;-78
2022/07/02 03:26:17;;;;;;;6.95;4.03;;;;;;;8.08;100.00;96234.06;5013630;28;20041;-79
2022/07/02 03:28:43;;;;;;;8.27;3.63;;;;;;;7.99;100.00;96241.53;5029727;28;20466;-79
2022/07/02 03:31:08;;;;;;;7.63;3.55;;;;;;;8.05;100.00;96245.81;5031896;28;20404;-78
2022/07/02 03:33:34;;;;;;;7.45;4.15;;;;;;;7.94;100.00;96238.78;5032100;28;20060;-78
2022/07/02 03:35:59;;;;;;;6.60;3.72;;;;;;;7.89;100.00;96241.34;5031985;28;20076;-78
2022/07/02 03:38:25;;;;;;;7.72;3.83;;;;;;;7.83;100.00;96237.00;5030201;28;20050;-78
2022/07/02 03:40:51;;;;;;;8.00;3.58;;;;;;;7.88;100.00;96239.75;5027585;28;20045;-78
2022/07/02 03:43:16;;;;;;;6.90;3.55;;;;;;;7.93;100.00;96242.44;5014333;28;20091;-78
2022/07/02 03:45:42;;;;;;;7.07;3.67;;;;;;;7.87;100.00;96238.13;5031140;28;20042;-79
2022/07/02 03:48:07;;;;;;;7.75;3.63;;;;;;;8.00;100.00;96243.09;5025319;28;20041;-77
2022/07/02 03:50:33;;;;;;;6.38;3.58;;;;;;;8.07;100.00;96238.50;5030187;28;20046;-77
2022/07/02 03:52:58;;;;;;;7.35;3.50;;;;;;;8.10;100.00;96245.94;5030135;28;20053;-79
2022/07/02 03:55:24;;;;;;;6.95;3.33;;;;;;;8.10;100.00;96247.72;5013265;28;20033;-78
2022/07/02 03:57:49;;;;;;;5.72;3.20;;;;;;;8.12;100.00;96246.47;5031422;28;20596;-79
2022/07/02 04:00:15;;;;;;;9.50;3.28;;;;;;;8.18;100.00;96254.44;5030744;28;20049;-80
2022/07/02 04:02:41;;;;;;;5.40;3.33;;;;;;;8.09;100.00;96249.56;5012954;28;20041;-78
2022/07/02 04:05:07;;;;;;;7.95;3.30;;;;;;;8.07;100.00;96238.50;5001678;28;20041;-79
2022/07/02 04:07:33;;;;;;;10.55;4.13;;;;;;;8.13;100.00;96248.06;5013400;28;20052;-79
2022/07/02 04:09:58;;;;;;;8.52;4.35;;;;;;;8.15;100.00;96246.00;5013393;28;20040;-80
2022/07/02 04:12:23;;;;;;;7.47;4.30;;;;;;;8.41;100.00;96254.31;5014131;28;20507;-79
2022/07/02 04:14:49;;;;;;;9.68;4.25;;;;;;;8.37;100.00;96253.19;5030616;28;20120;-79
2022/07/02 04:17:14;;;;;;;15.27;4.75;;;;;;;8.63;100.00;96251.00;5031121;28;20533;-80
2022/07/02 04:19:40;;;;;;;10.85;4.88;;;;;;;8.61;100.00;96242.59;5030304;28;20531;-80
2022/07/02 04:22:06;;;;;;;9.52;4.63;;;;;;;8.74;100.00;96250.16;5031159;28;20038;-80
2022/07/02 04:24:31;;;;;;;8.90;4.65;;;;;;;8.80;100.00;96246.56;5029932;28;20082;-80
2022/07/02 04:26:57;;;;;;;10.60;5.43;;;;;;;8.88;100.00;96248.00;5010246;28;20064;-80
2022/07/02 04:29:22;;;;;;;9.00;4.68;;;;;;;8.92;100.00;96253.53;5021433;28;20519;-80
2022/07/02 04:31:48;;;;;;;9.20;5.25;;;;;;;9.00;100.00;96255.78;5030208;28;20048;-79
2022/07/02 04:34:14;;;;;;;11.75;6.05;;;;;;;9.02;100.00;96249.25;5030670;28;20052;-79
2022/07/02 04:36:40;;;;;;;14.25;5.90;;;;;;;9.14;100.00;96251.00;5023975;28;20502;-78
2022/07/02 04:39:06;;;;;;;11.52;5.78;;;;;;;9.24;100.00;96245.06;5030459;28;20530;-79
2022/07/02 04:41:32;;;;;;;14.68;5.72;;;;;;;9.32;100.00;96252.53;5030678;28;20045;-79
2022/07/02 04:43:58;;;;;;;11.75;6.18;;;;;;;9.29;100.00;96243.28;5030926;28;20037;-78
2022/07/02 04:46:24;;;;;;;15.50;6.07;;;;;;;9.30;100.00;96254.63;5030444;28;20037;-78
2022/07/02 04:48:50;;;;;;;18.88;6.65;;;;;;;9.46;100.00;96247.72;5012492;28;20045;-78
2022/07/02 04:51:17;;;;;;;15.00;6.18;;;;;;;9.51;100.00;96248.59;5011529;28;20064;-78
2022/07/02 04:53:43;;;;;;;14.65;6.50;;;;;;;9.49;100.00;96258.53;5030145;28;20046;-79
2022/07/02 04:56:08;;;;;;;13.43;6.40;;;;;;;9.65;100.00;96245.59;5024329;28;20049;-78
2022/07/02 04:58:33;;;;;;;15.10;7.10;;;;;;;9.70;100.00;96248.28;5023765;28;20073;-77
2022/07/02 05:00:59;;;;;;;18.95;6.53;;;;;;;9.71;100.00;96244.59;5012463;28;20514;-79
2022/07/02 05:03:24;;;;;;;13.75;6.60;;;;;;;9.84;100.00;96248.69;5030052;28;20557;-78
2022/07/02 05:05:50;;;;;;;13.82;6.20;;;;;;;9.95;100.00;96250.38;5027662;28;20041;-79
2022/07/02 05:08:15;;;;;;;14.65;7.05;;;;;;;9.97;100.00;96253.59;5030865;28;20487;-79
2022/07/02 05:10:41;;;;;;;24.08;6.57;;;;;;;9.93;100.00;96252.50;5026383;28;20099;-77
2022/07/02 05:13:06;;;;;;;18.77;7.03;;;;;;;10.16;100.00;96248.78;5026216;28;20045;-78
2022/07/02 05:15:32;;;;;;;24.92;6.78;;;;;;;10.15;100.00;96249.81;5029760;28;20411;-78
2022/07/02 05:17:57;;;;;;;12.75;6.90;;;;;;;10.27;100.00;96256.75;5026597;28;20095;-78
2022/07/02 05:20:23;;;;;;;13.75;6.60;;;;;;;10.35;100.00;96251.09;5022742;28;20041;-77
2022/07/02 05:22:49;;;;;;;13.35;6.47;;;;;;;10.51;100.00;96250.16;5011485;28;20458;-79
2022/07/02 05:25:14;;;;;;;13.90;6.88;;;;;;;10.37;100.00;96246.34;5030545;28;20073;-77
2022/07/02 05:27:40;;;;;;;17.27;7.15;;;;;;;10.30;100.00;96251.00;5028242;28;20042;-78
2022/07/02 05:30:06;;;;;;;20.17;7.72;;;;;;;10.57;100.00;96262.34;5029737;28;20396;-78
2022/07/02 05:32:31;;;;;;;14.38;7.30;;;;;;;10.73;100.00;96254.56;5011867;28;20041;-79
2022/07/02 05:34:57;;;;;;;16.50;7.10;;;;;;;10.85;100.00;96257.03;5026180;28;20124;-78
2022/07/02 05:37:22;;;;;;;17.25;7.45;;;;;;;10.88;100.00;96252.03;5027336;28;20418;-78
2022/07/02 05:39:48;;;;;;;19.50;7.25;;;;;;;10.91;100.00;96256.78;5009753;28;20416;-78
2022/07/02 05:42:13;;;;;;;13.98;7.38;;;;;;;10.97;100.00;96256.84;5029848;28;20117;-78
2022/07/02 05:44:39;;;;;;;13.20;7.03;;;;;;;11.13;100.00;96252.47;5029704;28;20049;-79
2022/07/02 05:47:04;;;;;;;15.10;6.68;;;;;;;11.27;100.00;96254.38;5030506;28;20236;-79
2022/07/02 05:49:30;;;;;;;14.60;7.20;;;;;;;11.41;100.00;96248.69;5011167;28;20227;-78
2022/07/02 05:51:55;;;;;;;12.80;6.93;;;;;;;11.39;100.00;96250.75;5009758;28;20041;-78
2022/07/02 05:54:21;;;;;;;12.82;6.90;;;;;;;11.47;100.00;96252.91;5023059;28;20073;-78
2022/07/02 05:56:46;;;;;;;12.77;6.60;;;;;;;11.59;100.00;96250.88;5026879;28;20042;-78
2022/07/02 05:59:12;;;;;;;11.52;6.22;;;;;;;11.61;100.00;96259.31;5011597;28;20041;-78
2022/07/02 06:01:37;;;;;;;10.95;6.07;;;;;;;11.48;100.00;96259.78;5029610;28;20448;-78
2022/07/02 06:04:03;;;;;;;10.95;5.88;;;;;;;11.54;100.00;96258.75;5011978;28;20113;-79
2022/07/02 06:09:12;;;;;;;14.07;5.60;;;;;;;11.78;100.00;96253.06;5037197;28;20163;-78
2022/07/02 06:11:38;;;;;;;10.70;5.80;;;;;;;11.80;100.00;96256.22;5004643;28;20045;-79
2022/07/02 06:14:03;;;;;;;9.88;5.47;;;;;;;11.82;100.00;96248.84;5010649;28;20045;-78
2022/07/02 06:16:29;;;;;;;9.73;4.95;;;;;;;12.03;100.00;96254.22;5010870;28;20041;-78
2022/07/02 06:18:55;;;;;;;8.55;5.25;;;;;;;11.98;100.00;96251.56;5009859;28;20453;-78
2022/07/02 06:21:21;;;;;;;9.27;5.35;;;;;;;12.08;100.00;96251.56;5028692;28;20042;-78
2022/07/02 06:23:46;;;;;;;8.75;5.15;;;;;;;12.20;100.00;96254.78;5028795;28;20087;-78
2022/07/02 06:26:12;;;;;;;9.02;4.97;;;;;;;12.31;100.00;96266.13;5011221;28;20030;-79
2022/07/02 06:28:37;;;;;;;7.93;4.57;;;;;;;12.31;100.00;96266.13;5026758;28;20038;-78
2022/07/02 06:31:03;;;;;;;7.32;4.50;;;;;;;12.26;100.00;96259.00;5029255;28;20128;-78
2022/07/02 06:33:29;;;;;;;8.25;4.93;;;;;;;12.50;100.00;96258.53;5011249;28;20041;-78
2022/07/02 06:35:55;;;;;;;8.52;4.50;;;;;;;12.30;100.00;96246.88;5020356;28;20040;-79
2022/07/02 06:38:20;;;;;;;9.15;4.90;;;;;;;12.38;100.00;96261.41;5029133;28;20041;-78
2022/07/02 06:40:46;;;;;;;8.15;4.28;;;;;;;12.72;100.00;96254.84;5025659;28;20041;-77
2022/07/02 06:43:11;;;;;;;6.63;4.10;;;;;;;12.79;100.00;96261.44;5029623;28;20443;-79
2022/07/02 06:45:37;;;;;;;5.78;3.70;;;;;;;12.88;100.00;96259.03;5011086;28;20410;-76
2022/07/02 06:48:02;;;;;;;5.30;3.13;;;;;;;12.87;100.00;96259.31;5043841;28;20041;-78
2022/07/02 06:50:28;;;;;;;4.68;2.67;;;;;;;12.80;100.00;96264.84;5029217;28;20045;-81
2022/07/02 06:52:53;;;;;;;4.78;2.90;;;;;;;12.83;100.00;96261.72;5014633;28;20128;-85
2022/07/02 06:55:20;;;;;;;5.53;2.30;;;;;;;13.05;100.00;96258.00;5031911;28;20041;-85
2022/07/02 06:57:47;;;;;;;4.88;2.75;;;;;;;13.15;100.00;96257.97;5011062;28;20076;-79
2022/07/02 07:00:13;;;;;;;4.47;2.60;;;;;;;13.12;100.00;96258.50;5029680;28;20046;-80
2022/07/02 07:02:38;;;;;;;3.83;2.45;;;;;;;13.24;100.00;96261.63;5032078;28;20388;-80
2022/07/02 07:05:04;;;;;;;8.45;2.53;;;;;;;13.21;100.00;96256.91;5030666;28;20041;-80
2022/07/02 07:07:31;;;;;;;5.53;2.50;;;;;;;13.22;100.00;96258.47;5030432;28;20136;-79
2022/07/02 07:09:56;;;;;;;3.97;2.50;;;;;;;13.51;100.00;96253.41;5031277;28;20125;-78
2022/07/02 07:12:22;;;;;;;3.70;2.30;;;;;;;13.45;100.00;96261.63;5030075;28;20110;-77
2022/07/02 07:14:47;;;;;;;4.22;2.10;;;;;;;13.68;100.00;96266.31;5031425;28;20077;-81
2022/07/02 07:17:13;;;;;;;3.55;2.00;;;;;;;13.74;100.00;96258.38;5033442;28;20052;-77
2022/07/02 07:19:38;;;;;;;3.60;2.10;;;;;;;13.75;100.00;96265.22;5031271;28;20430;-78
2022/07/02 07:22:04;;;;;;;4.35;2.17;;;;;;;13.81;100.00;96269.44;5018554;28;20042;-82
2022/07/02 07:24:30;;;;;;;5.45;2.30;;;;;;;13.66;100.00;96260.50;5032844;28;20045;-78
2022/07/02 07:26:57;;;;;;;3.53;2.13;;;;;;;13.77;100.00;96263.13;5016017;28;20061;-77
2022/07/02 07:29:23;;;;;;;4.25;2.10;;;;;;;13.91;100.00;96258.81;5014517;28;20041;-82
2022/07/02 07:31:49;;;;;;;2.67;1.80;;;;;;;14.17;100.00;96262.13;5018636;28;20538;-80
2022/07/02 07:34:14;;;;;;;2.92;2.05;;;;;;;14.09;100.00;96259.25;5033219;28;20053;-79
2022/07/02 07:36:40;;;;;;;3.25;1.90;;;;;;;14.04;100.00;96252.91;5029324;28;20116;-84
2022/07/02 07:39:07;;;;;;;2.35;1.70;;;;;;;14.10;100.00;96260.84;5022279;28;20049;-79
2022/07/02 07:41:33;;;;;;;3.10;2.05;;;;;;;14.27;100.00;96265.78;5029901;28;20108;-82
2022/07/02 07:44:00;;;;;;;2.92;1.90;;;;;;;14.29;100.00;96253.84;5015044;28;20415;-80
2022/07/02 07:46:25;;;;;;;2.63;1.88;;;;;;;14.47;100.00;96265.66;5015019;28;20045;-77
2022/07/02 07:48:51;;;;;;;2.45;1.75;;;;;;;14.63;100.00;96263.72;5013594;28;20045;-80
2022/07/02 07:51:17;;;;;;;2.95;1.70;;;;;;;14.51;100.00;96260.56;5036415;28;20053;-84
2022/07/02 07:53:44;;;;;;;5.97;2.13;;;;;;;14.45;100.00;96261.69;5031364;28;20043;-81
2022/07/02 07:56:10;;;;;;;3.85;1.80;;;;;;;14.56;100.00;96255.25;5031961;28;20034;-83
2022/07/02 07:58:36;;;;;;;2.83;1.75;;;;;;;14.62;100.00;96256.03;5012947;28;20034;-80
2022/07/02 08:01:01;;;;;;;3.70;1.92;;;;;;;14.76;100.00;96248.25;5031805;28;20049;-79
2022/07/02 08:03:27;;;;;;;3.17;2.05;;;;;;;14.88;100.00;96253.97;5031709;28;20046;-79
2022/07/02 08:05:56;;;;;;;3.35;1.85;;;;;;;14.80;100.00;96251.94;5024949;28;20045;-79
2022/07/02 08:08:22;;;;;;;4.10;2.17;;;;;;;14.75;100.00;96244.03;5032461;28;20042;-78
2022/07/02 08:10:47;;;;;;;3.03;2.10;;;;;;;14.88;100.00;96251.31;5013960;28;20040;-79
2022/07/02 08:13:13;;;;;;;2.63;1.80;;;;;;;14.88;100.00;96259.28;5032407;28;20064;-78
2022/07/02 08:15:38;;;;;;;3.40;2.17;;;;;;;14.93;100.00;96245.19;5032040;28;20542;-77
2022/07/02 08:18:04;;;;;;;3.28;2.20;;;;;;;14.92;100.00;96255.00;5031961;28;20117;-78
2022/07/02 08:20:29;;;;;;;3.08;1.90;;;;;;;15.05;100.00;96253.56;5025907;28;20038;-80
2022/07/02 08:22:55;;;;;;;2.17;1.70;;;;;;;15.28;100.00;96246.69;5031471;28;20050;-78
2022/07/02 08:25:20;;;;;;;5.85;1.90;;;;;;;15.24;100.00;96245.69;5031857;28;20041;-76
2022/07/02 08:27:46;;;;;;;3.05;1.75;;;;;;;15.20;100.00;96249.97;5012606;28;20071;-77
2022/07/02 08:30:12;;;;;;;4.50;1.88;;;;;;;15.22;100.00;96253.13;5030654;28;21655;-77
2022/07/02 08:32:38;;;;;;;7.22;2.00;;;;;;;15.21;100.00;96251.56;5012220;28;20396;-77
2022/07/02 08:35:05;;;;;;;2.25;1.75;;;;;;;15.29;100.00;96256.25;5029866;28;20666;-77
2022/07/02 08:37:31;;;;;;;5.68;2.22;;;;;;;15.50;100.00;96245.41;5024980;28;20116;-77
2022/07/02 08:39:57;;;;;;;3.03;2.13;;;;;;;15.48;100.00;96244.91;5027932;28;20041;-77
2022/07/02 08:42:30;;;;;;;3.92;2.22;;;;;;;15.36;100.00;96254.06;5031051;28;20044;-77
2022/07/02 08:45:02;;;;;;;2.90;1.98;;;;;;;15.48;100.00;96239.63;5030818;28;20040;-76
2022/07/02 08:47:28;;;;;;;4.38;2.50;;;;;;;15.35;100.00;96231.25;5026389;28;20042;-77
2022/07/02 08:49:56;;;;;;;2.47;1.85;;;;;;;15.69;100.00;96238.31;5030781;28;20105;-77
2022/07/02 08:52:24;;;;;;;3.50;2.08;;;;;;;15.63;100.00;96228.84;5030735;28;20038;-78
2022/07/02 08:54:51;;;;;;;6.05;2.80;;;;;;;15.83;100.00;96234.97;5031290;28;20050;-79
2022/07/02 08:57:17;;;;;;;7.75;2.47;;;;;;;15.73;100.00;96231.34;5014222;28;20029;-79
2022/07/02 08:59:43;;;;;;;4.57;2.30;;;;;;;15.91;100.00;96231.69;5031726;28;20076;-82
2022/07/02 09:02:14;;;;;;;5.97;2.40;;;;;;;16.02;100.00;96233.13;5013722;28;20045;-78
2022/07/02 09:04:44;;;;;;;3.78;2.40;;;;;;;16.15;100.00;96220.22;5023311;28;20045;-79
2022/07/02 09:07:12;;;;;;;4.75;2.20;;;;;;;15.93;100.00;96224.22;5031521;28;20045;-79
2022/07/02 09:09:38;;;;;;;4.15;2.40;;;;;;;16.10;100.00;96224.53;5011598;28;20096;-81
2022/07/02 09:12:03;;;;;;;4.07;2.60;;;;;;;16.22;100.00;96223.28;5031695;28;20045;-81
2022/07/02 09:14:32;;;;;;;4.15;2.50;;;;;;;16.23;100.00;96206.28;5013600;28;20637;-83
2022/07/02 09:16:58;;;;;;;7.32;2.22;;;;;;;16.40;100.00;96216.41;5014689;28;20653;-81
2022/07/02 09:19:23;;;;;;;4.13;2.70;;;;;;;16.45;100.00;96214.47;5029726;28;20049;-78
2022/07/02 09:21:51;;;;;;;3.38;2.30;;;;;;;16.62;100.00;96221.09;5032250;28;20076;-79
2022/07/02 09:24:35;;;;;;;4.55;2.70;;;;;;;16.58;100.00;96212.16;5028572;28;20133;-80
2022/07/02 09:27:06;;;;;;;4.07;2.50;;;;;;;16.71;100.00;96206.09;5011121;28;20112;-79
2022/07/02 09:29:46;;;;;;;3.50;2.47;;;;;;;16.71;100.00;96211.41;5022880;28;20066;-79
2022/07/02 09:32:13;;;;;;;4.00;2.55;;;;;;;16.88;100.00;96210.88;5024893;28;20049;-78
2022/07/02 09:34:47;;;;;;;3.90;2.50;;;;;;;16.93;100.00;96207.34;5013551;28;20076;-78
2022/07/02 09:37:25;;;;;;;7.55;2.33;;;;;;;16.92;100.00;96205.75;5013060;28;20050;-78
2022/07/02 09:39:52;;;;;;;7.97;3.00;;;;;;;16.94;100.00;96195.63;5021425;28;20049;-79
2022/07/02 09:42:33;;;;;;;8.98;2.67;;;;;;;17.03;100.00;96196.53;5024064;28;20037;-79
2022/07/02 09:45:02;;;;;;;3.58;2.40;;;;;;;17.01;100.00;96193.38;5017017;28;20045;-78
2022/07/02 09:47:34;;;;;;;4.95;2.40;;;;;;;17.18;100.00;96192.00;5027504;28;20116;-79
2022/07/02 09:50:08;;;;;;;6.03;2.58;;;;;;;17.23;100.00;96189.25;5019315;28;20454;-78
2022/07/02 09:52:35;;;;;;;3.65;2.42;;;;;;;17.36;100.00;96177.81;5012260;28;20048;-79
2022/07/02 09:55:02;;;;;;;5.32;2.92;;;;;;;17.37;98.86;96179.41;5030644;28;20099;-78
2022/07/02 09:57:28;;;;;;;4.30;2.30;;;;;;;17.88;95.05;96172.22;5029185;28;20042;-78
2022/07/02 10:00:04;;;;;;;5.45;2.25;;;;;;;18.08;96.16;96172.91;5018545;28;20068;-79
2022/07/02 10:02:29;;;;;;;9.10;2.45;;;;;;;18.27;93.84;96170.06;5010390;28;20512;-78
2022/07/02 10:04:56;;;;;;;3.40;2.20;;;;;;;18.40;92.30;96171.88;5011810;28;20055;-78
2022/07/02 10:07:23;;;;;;;5.88;2.28;;;;;;;18.39;92.89;96164.19;5029887;28;20499;-78
2022/07/02 10:09:50;;;;;;;3.42;2.00;;;;;;;18.69;87.19;96167.97;5011199;28;20423;-79
2022/07/02 10:12:17;;;;;;;2.85;2.00;;;;;;;18.51;84.96;96157.22;5022330;28;20045;-78
2022/07/02 10:14:47;;;;;;;4.35;2.20;;;;;;;18.67;86.87;96159.50;5030392;28;20048;-79
2022/07/02 10:17:15;;;;;;;4.75;2.30;;;;;;;18.64;86.94;96160.13;5009730;28;20363;-79
2022/07/02 10:19:41;;;;;;;3.35;1.90;;;;;;;19.14;80.43;96165.25;5027041;28;20080;-80
2022/07/02 10:22:07;;;;;;;3.55;2.20;;;;;;;19.18;83.61;96162.75;5029681;28;20092;-79
2022/07/02 10:24:33;;;;;;;2.63;1.92;;;;;;;19.41;77.86;96155.47;5030309;28;20045;-79
2022/07/02 10:27:01;;;;;;;5.78;2.20;;;;;;;19.60;76.54;96155.19;5020270;28;20038;-79
2022/07/02 10:29:28;;;;;;;3.78;2.10;;;;;;;19.81;79.91;96147.38;5011026;28;20041;-80
2022/07/02 10:32:09;;;;;;;4.40;2.22;;;;;;;20.10;77.60;96147.84;5011847;28;20124;-79
2022/07/02 10:34:51;;;;;;;4.55;2.42;;;;;;;19.95;74.68;96151.78;5012402;28;20045;-79
2022/07/02 10:37:17;;;;;;;2.45;1.95;;;;;;;20.10;72.76;96143.31;5017375;28;20164;-79
2022/07/02 10:39:43;;;;;;;5.90;2.20;;;;;;;20.60;79.25;96139.28;5026537;28;20041;-79
2022/07/02 10:42:09;;;;;;;4.07;2.35;;;;;;;20.97;70.03;96144.25;5012056;28;20415;-79
2022/07/02 10:44:36;;;;;;;5.00;2.20;;;;;;;20.99;74.82;96145.50;5011863;28;20049;-79
2022/07/02 10:47:02;;;;;;;3.95;1.95;;;;;;;20.74;67.11;96139.91;5029938;28;20041;-79
2022/07/02 10:49:28;;;;;;;5.45;2.20;;;;;;;21.26;67.65;96149.66;5009773;28;20422;-79
2022/07/02 10:51:59;;;;;;;3.00;2.10;;;;;;;21.34;65.82;96139.22;5029067;28;20060;-78
2022/07/02 10:54:33;;;;;;;3.10;2.00;;;;;;;21.96;62.01;96138.50;5011651;28;20042;-78
2022/07/02 10:56:59;;;;;;;2.92;2.10;;;;;;;22.42;65.81;96140.53;5013194;28;20049;-77
2022/07/02 10:59:36;;;;;;;7.07;2.15;;;;;;;22.65;64.88;96136.31;5022316;28;20048;-78
2022/07/02 11:02:09;;;;;;;7.00;2.15;;;;;;;23.20;61.03;96133.50;5006225;28;20045;-78
2022/07/02 11:04:35;;;;;;;2.53;1.95;;;;;;;23.16;60.87;96138.00;5029103;28;20048;-78
2022/07/02 11:07:06;;;;;;;3.50;2.03;;;;;;;23.05;60.24;96128.78;5029638;28;20041;-78
2022/07/02 11:09:32;;;;;;;2.97;1.75;;;;;;;23.84;52.25;96112.38;5018544;28;20065;-78
2022/07/02 11:12:03;;;;;;;1.58;1.48;;;;;;;23.74;55.60;96110.19;5004401;28;20589;-78
2022/07/02 11:14:31;;;;;;;2.33;1.70;;;;;;;24.13;56.62;96097.09;5029306;28;20447;-78
2022/07/02 11:16:57;;;;;;;2.20;1.60;;;;;;;24.46;53.94;96101.41;5029239;28;20087;-78
2022/07/02 11:19:28;;;;;;;2.38;1.65;;;;;;;24.42;52.42;96093.22;5002339;28;20041;-78
2022/07/02 11:21:58;;;;;;;1.63;1.40;;;;;;;24.49;51.29;96081.88;5028828;28;20111;-78
2022/07/02 11:24:28;;;;;;;4.68;1.50;;;;;;;24.95;52.82;96076.88;5028685;28;20046;-78
2022/07/02 11:26:53;;;;;;;2.05;1.50;;;;;;;23.75;51.69;96072.22;5026438;28;20053;-78
2022/07/02 11:29:19;;;;;;;4.82;1.48;;;;;;;24.39;49.16;96078.59;5023390;28;20542;-78
2022/07/02 11:31:47;;;;;;;3.28;1.52;;;;;;;23.90;54.44;96062.66;5011261;28;20544;-79